Time;durP1;ratioP1;P1;durP2;ratioP2;P2;SDS_P1;SDS_P2;PMS_P1;PMS_P2;Temp;Humidity;BMP_temperature;BMP_pressure;BME280_temperature;BME280_humidity;BME280_pressure;Samples;Min_cycle;Max_cycle;Signal;HPM_P1;HPM_P2
2022/09/18 00:00:55;;;;;;;;;;;18.00;56.10;;;;;;5112973;28;20330;-67
2022/09/18 00:03:21;;;;;;;;;;;17.90;56.00;;;;;;5112965;28;19930;-66
2022/09/18 00:05:46;;;;;;;;;;;18.00;56.10;;;;;;5113036;28;19959;-66
2022/09/18 00:08:12;;;;;;;;;;;17.90;56.80;;;;;;5113211;28;20443;-67
2022/09/18 00:10:42;;;;;;;;;;;18.00;56.10;;;;;;5112865;28;19969;-66
2022/09/18 00:13:08;;;;;;;;;;;18.00;56.10;;;;;;5094612;28;19927;-67
2022/09/18 00:15:34;;;;;;;;;;;17.90;56.00;;;;;;5112784;28;19926;-67
2022/09/18 00:18:00;;;;;;;;;;;18.00;56.10;;;;;;5094877;28;19927;-66
2022/09/18 00:20:26;;;;;;;;;;;17.90;56.10;;;;;;5094642;28;19920;-66
2022/09/18 00:22:51;;;;;;;;;;;17.90;56.10;;;;;;5094806;28;19926;-69
2022/09/18 00:25:17;;;;;;;;;;;17.90;56.00;;;;;;5094544;28;19916;-66
2022/09/18 00:27:42;;;;;;;;;;;17.90;56.10;;;;;;5112726;28;19922;-67
2022/09/18 00:30:08;;;;;;;;;;;18.00;56.10;;;;;;5112417;28;19920;-69
2022/09/18 00:32:34;;;;;;;;;;;17.90;56.10;;;;;;5094392;28;20306;-67
2022/09/18 00:34:59;;;;;;;;;;;17.90;56.10;;;;;;5094462;28;19927;-66
2022/09/18 00:37:25;;;;;;;;;;;17.90;56.10;;;;;;5128701;28;19926;-66
2022/09/18 00:39:50;;;;;;;;;;;17.90;56.10;;;;;;5094382;28;19992;-67
2022/09/18 00:42:18;;;;;;;;;;;17.90;56.10;;;;;;5128518;28;20007;-66
2022/09/18 00:44:44;;;;;;;;;;;17.90;56.10;;;;;;5094563;28;19924;-66
2022/09/18 00:49:54;;;;;;;;;;;17.90;56.10;;;;;;5089755;28;19912;-66
2022/09/18 00:52:20;;;;;;;;;;;17.90;56.10;;;;;;5088522;28;19926;-67
2022/09/18 00:54:47;;;;;;;;;;;17.90;56.10;;;;;;5088363;28;20277;-66
2022/09/18 00:57:16;;;;;;;;;;;17.90;56.20;;;;;;5088513;28;19928;-66
2022/09/18 00:59:43;;;;;;;;;;;17.90;56.10;;;;;;5088135;28;19924;-69
2022/09/18 01:02:08;;;;;;;;;;;17.90;56.10;;;;;;5088615;28;20429;-67
2022/09/18 01:04:34;;;;;;;;;;;17.90;56.20;;;;;;5088262;28;19921;-67
2022/09/18 01:07:07;;;;;;;;;;;17.90;56.20;;;;;;5088205;28;19924;-67
2022/09/18 01:09:41;;;;;;;;;;;17.90;56.20;;;;;;5088082;28;19924;-66
2022/09/18 01:12:27;;;;;;;;;;;17.90;56.20;;;;;;5088381;28;20372;-67
2022/09/18 01:14:59;;;;;;;;;;;17.90;56.20;;;;;;5089348;28;19921;-67
2022/09/18 01:20:24;;;;;;;;;;;17.90;56.20;;;;;;5089854;28;19913;-66
2022/09/18 01:23:10;;;;;;;;;;;17.90;56.20;;;;;;5088304;28;19970;-68
2022/09/18 01:25:44;;;;;;;;;;;17.90;56.20;;;;;;5088209;28;19920;-67
2022/09/18 01:28:29;;;;;;;;;;;17.80;56.20;;;;;;5088383;28;20380;-67
2022/09/18 01:30:57;;;;;;;;;;;17.90;56.20;;;;;;5088350;28;20373;-66
2022/09/18 01:33:27;;;;;;;;;;;17.80;56.20;;;;;;5088657;28;20022;-67
2022/09/18 01:35:54;;;;;;;;;;;17.90;56.20;;;;;;5089528;28;20322;-67
2022/09/18 01:38:27;;;;;;;;;;;17.90;56.20;;;;;;5088149;28;20380;-69
2022/09/18 01:41:13;;;;;;;;;;;17.90;56.20;;;;;;5088574;28;19916;-67
2022/09/18 01:43:39;;;;;;;;;;;17.80;56.20;;;;;;5104924;28;19916;-66
2022/09/18 01:46:08;;;;;;;;;;;17.80;56.20;;;;;;5088464;28;19916;-66
2022/09/18 01:48:37;;;;;;;;;;;17.80;56.20;;;;;;5087948;28;19965;-66
2022/09/18 01:51:05;;;;;;;;;;;17.90;56.20;;;;;;5088271;28;19920;-66
2022/09/18 01:53:33;;;;;;;;;;;17.80;56.20;;;;;;5088010;28;20376;-69
2022/09/18 01:56:03;;;;;;;;;;;17.80;56.20;;;;;;5088233;28;19920;-69
2022/09/18 01:58:31;;;;;;;;;;;17.80;56.20;;;;;;5087649;28;19931;-66
2022/09/18 02:00:58;;;;;;;;;;;17.80;56.20;;;;;;5087694;28;19963;-66
2022/09/18 02:06:08;;;;;;;;;;;17.80;56.20;;;;;;5089309;28;19908;-68
2022/09/18 02:08:43;;;;;;;;;;;17.80;56.20;;;;;;5088548;28;19916;-66
2022/09/18 02:11:11;;;;;;;;;;;17.80;56.20;;;;;;5088749;28;20020;-66
2022/09/18 02:13:38;;;;;;;;;;;17.80;56.20;;;;;;5088837;28;19924;-66
2022/09/18 02:16:06;;;;;;;;;;;17.80;56.20;;;;;;5088443;28;19962;-66
2022/09/18 02:18:36;;;;;;;;;;;17.80;56.20;;;;;;5090027;28;20314;-66
2022/09/18 02:21:05;;;;;;;;;;;17.80;56.20;;;;;;5071538;28;19917;-68
2022/09/18 02:23:32;;;;;;;;;;;17.80;56.20;;;;;;5088476;28;19924;-68
2022/09/18 02:26:00;;;;;;;;;;;17.80;56.30;;;;;;5088202;28;20371;-67
2022/09/18 02:28:27;;;;;;;;;;;17.80;56.20;;;;;;5088641;28;19970;-66
2022/09/18 02:30:53;;;;;;;;;;;17.80;56.20;;;;;;5088494;28;20267;-66
2022/09/18 02:33:22;;;;;;;;;;;17.80;56.20;;;;;;5088450;28;19920;-66
2022/09/18 02:35:52;;;;;;;;;;;17.80;56.30;;;;;;5088042;28;19987;-66
2022/09/18 02:38:24;;;;;;;;;;;17.80;56.30;;;;;;5088056;28;20036;-66
2022/09/18 02:40:57;;;;;;;;;;;17.80;56.30;;;;;;5089220;28;19927;-66
2022/09/18 02:46:22;;;;;;;;;;;17.80;56.30;;;;;;5089991;28;19908;-66
2022/09/18 02:57:09;;;;;;;;;;;17.80;56.30;;;;;;5089746;28;20256;-66
2022/09/18 02:59:38;;;;;;;;;;;17.70;56.30;;;;;;5089993;28;19930;-66
2022/09/18 03:02:05;;;;;;;;;;;17.70;56.30;;;;;;5088732;28;19921;-66
2022/09/18 03:04:30;;;;;;;;;;;17.70;56.30;;;;;;5088486;28;19927;-66
2022/09/18 03:06:56;;;;;;;;;;;17.80;56.40;;;;;;5088640;28;19925;-66
2022/09/18 03:09:22;;;;;;;;;;;17.70;56.30;;;;;;5087576;28;19926;-69
2022/09/18 03:11:49;;;;;;;;;;;17.70;56.30;;;;;;5088402;28;19920;-66
2022/09/18 03:14:14;;;;;;;;;;;17.70;56.30;;;;;;5088538;28;20280;-66
2022/09/18 03:16:40;;;;;;;;;;;17.70;56.30;;;;;;5089514;28;19924;-68
2022/09/18 03:19:05;;;;;;;;;;;17.70;56.30;;;;;;5088384;28;19920;-66
2022/09/18 03:21:31;;;;;;;;;;;17.70;56.30;;;;;;5088155;28;19929;-67
2022/09/18 03:23:56;;;;;;;;;;;17.70;56.30;;;;;;5088010;28;19973;-66
2022/09/18 03:26:22;;;;;;;;;;;17.70;56.30;;;;;;5088095;28;19920;-67
2022/09/18 03:28:47;;;;;;;;;;;17.70;56.40;;;;;;5087790;28;20007;-67
2022/09/18 03:31:13;;;;;;;;;;;17.70;56.40;;;;;;5087962;28;19920;-66
2022/09/18 03:33:39;;;;;;;;;;;17.70;56.40;;;;;;5089507;28;19920;-67
2022/09/18 03:36:05;;;;;;;;;;;17.80;56.50;;;;;;5089146;28;20421;-67
2022/09/18 03:38:31;;;;;;;;;;;17.70;56.40;;;;;;5087779;28;20273;-66
2022/09/18 03:40:56;;;;;;;;;;;17.70;56.40;;;;;;5089093;28;19927;-67
2022/09/18 03:43:22;;;;;;;;;;;17.70;56.40;;;;;;5087978;28;19917;-66
2022/09/18 03:45:48;;;;;;;;;;;17.70;56.40;;;;;;5089030;28;20407;-66
2022/09/18 03:48:13;;;;;;;;;;;17.70;56.40;;;;;;5087839;28;20003;-66
2022/09/18 03:50:39;;;;;;;;;;;17.70;56.40;;;;;;5087895;28;20371;-66
2022/09/18 03:53:07;;;;;;;;;;;17.70;56.40;;;;;;5088010;28;19927;-66
2022/09/18 03:55:33;;;;;;;;;;;17.70;56.50;;;;;;5087396;28;19921;-70
2022/09/18 03:57:58;;;;;;;;;;;17.70;56.40;;;;;;5087345;28;20365;-66
2022/09/18 04:00:24;;;;;;;;;;;17.70;56.40;;;;;;5087545;28;19927;-68
2022/09/18 04:02:50;;;;;;;;;;;17.70;56.50;;;;;;5088884;28;19924;-66
2022/09/18 04:05:15;;;;;;;;;;;17.70;56.50;;;;;;5087301;28;20356;-66
2022/09/18 04:07:41;;;;;;;;;;;17.70;56.50;;;;;;5078013;28;19926;-66
2022/09/18 04:10:07;;;;;;;;;;;17.70;56.50;;;;;;5073689;28;19920;-66
2022/09/18 04:12:33;;;;;;;;;;;17.70;56.50;;;;;;5073768;28;20360;-66
2022/09/18 04:14:59;;;;;;;;;;;17.70;56.50;;;;;;5073800;28;19924;-66
2022/09/18 04:17:25;;;;;;;;;;;17.70;56.50;;;;;;5075266;28;20343;-68
2022/09/18 04:19:50;;;;;;;;;;;17.70;56.50;;;;;;5073915;28;20011;-68
2022/09/18 04:22:16;;;;;;;;;;;17.70;56.50;;;;;;5073651;28;20023;-66
2022/09/18 04:24:41;;;;;;;;;;;17.70;56.50;;;;;;5073423;28;19966;-69
2022/09/18 04:27:07;;;;;;;;;;;17.70;56.50;;;;;;5075014;28;19920;-70
2022/09/18 04:29:33;;;;;;;;;;;17.70;56.50;;;;;;5073431;28;20451;-67
2022/09/18 04:31:58;;;;;;;;;;;17.60;56.50;;;;;;5073673;28;19920;-67
2022/09/18 04:34:24;;;;;;;;;;;17.70;56.50;;;;;;5074864;28;19979;-67
2022/09/18 04:36:49;;;;;;;;;;;17.70;56.50;;;;;;5074398;28;20023;-66
2022/09/18 04:39:15;;;;;;;;;;;17.60;56.50;;;;;;5074608;28;20352;-69
2022/09/18 04:41:40;;;;;;;;;;;17.70;56.50;;;;;;5074502;28;19999;-70
2022/09/18 04:44:06;;;;;;;;;;;17.60;56.50;;;;;;5074654;28;19959;-67
2022/09/18 04:46:32;;;;;;;;;;;17.70;56.50;;;;;;5074192;28;19923;-67
2022/09/18 04:48:57;;;;;;;;;;;17.70;56.60;;;;;;5072997;28;20348;-66
2022/09/18 04:51:23;;;;;;;;;;;17.70;56.60;;;;;;5073321;28;19926;-67
2022/09/18 04:53:49;;;;;;;;;;;17.60;56.50;;;;;;5074590;28;19979;-67
2022/09/18 04:56:14;;;;;;;;;;;17.60;56.50;;;;;;5055819;28;20308;-67
2022/09/18 04:58:40;;;;;;;;;;;17.60;56.50;;;;;;5072833;28;19916;-67
2022/09/18 05:01:05;;;;;;;;;;;17.60;56.50;;;;;;5073897;28;19923;-67
2022/09/18 05:03:31;;;;;;;;;;;17.60;56.50;;;;;;5073037;28;19920;-67
2022/09/18 05:05:56;;;;;;;;;;;17.60;56.60;;;;;;5074000;28;20445;-67
2022/09/18 05:08:22;;;;;;;;;;;17.60;56.50;;;;;;5074220;28;20394;-66
2022/09/18 05:10:48;;;;;;;;;;;17.60;56.50;;;;;;5074003;28;20050;-66
2022/09/18 05:13:13;;;;;;;;;;;17.60;56.50;;;;;;5073991;28;19916;-67
2022/09/18 05:15:39;;;;;;;;;;;17.60;56.50;;;;;;5072669;28;20280;-66
2022/09/18 05:18:05;;;;;;;;;;;17.60;56.50;;;;;;5072023;28;19920;-67
2022/09/18 05:20:32;;;;;;;;;;;17.60;56.50;;;;;;5072358;28;19942;-66
2022/09/18 05:22:58;;;;;;;;;;;17.60;56.50;;;;;;5073779;28;20265;-69
2022/09/18 05:25:27;;;;;;;;;;;17.60;56.50;;;;;;5072248;28;19917;-68
2022/09/18 05:30:36;;;;;;;;;;;17.60;56.60;;;;;;5130657;27;19999;-66
2022/09/18 05:33:03;;;;;;;;;;;17.60;56.60;;;;;;5129717;28;20444;-66
2022/09/18 05:35:29;;;;;;;;;;;17.60;56.60;;;;;;5129362;28;19923;-67
2022/09/18 05:37:55;;;;;;;;;;;17.60;56.60;;;;;;5130507;27;20006;-66
2022/09/18 05:40:23;;;;;;;;;;;17.60;57.40;;;;;;5129273;28;19994;-66
2022/09/18 05:42:49;;;;;;;;;;;17.60;56.60;;;;;;5129158;28;19924;-67
2022/09/18 05:45:15;;;;;;;;;;;17.60;56.60;;;;;;5129081;28;19927;-67
2022/09/18 05:47:41;;;;;;;;;;;17.60;56.60;;;;;;5129295;28;20274;-67
2022/09/18 05:50:07;;;;;;;;;;;17.60;56.60;;;;;;5130346;27;19919;-68
2022/09/18 05:52:33;;;;;;;;;;;17.60;56.70;;;;;;5130369;27;19915;-67
2022/09/18 05:54:58;;;;;;;;;;;17.60;56.70;;;;;;5129040;28;20432;-66
2022/09/18 05:57:24;;;;;;;;;;;17.60;56.70;;;;;;5129352;28;19926;-67
2022/09/18 05:59:49;;;;;;;;;;;17.60;56.70;;;;;;5130026;27;19920;-66
2022/09/18 06:02:15;;;;;;;;;;;17.50;56.60;;;;;;5128882;28;20004;-66
2022/09/18 06:04:41;;;;;;;;;;;17.60;56.70;;;;;;5130109;27;19920;-66
2022/09/18 06:07:06;;;;;;;;;;;17.60;56.70;;;;;;5130095;27;19999;-66
2022/09/18 06:09:32;;;;;;;;;;;17.60;56.70;;;;;;5128573;28;19924;-66
2022/09/18 06:11:57;;;;;;;;;;;17.60;56.80;;;;;;5129888;27;19965;-66
2022/09/18 06:14:23;;;;;;;;;;;17.50;56.70;;;;;;5129905;27;19924;-66
2022/09/18 06:16:49;;;;;;;;;;;17.60;56.80;;;;;;5129775;27;19973;-66
2022/09/18 06:19:14;;;;;;;;;;;17.50;56.70;;;;;;5128770;28;19941;-66
2022/09/18 06:21:40;;;;;;;;;;;17.50;56.70;;;;;;5128843;28;19972;-66
2022/09/18 06:24:06;;;;;;;;;;;17.50;56.70;;;;;;5129621;27;19920;-67
2022/09/18 06:26:32;;;;;;;;;;;17.50;56.70;;;;;;5130052;27;19959;-66
2022/09/18 06:28:57;;;;;;;;;;;17.50;56.70;;;;;;5127985;28;19919;-67
2022/09/18 06:31:23;;;;;;;;;;;17.50;56.70;;;;;;5117432;27;19927;-66
2022/09/18 06:33:48;;;;;;;;;;;17.50;56.80;;;;;;5107722;28;19927;-67
2022/09/18 06:36:15;;;;;;;;;;;17.60;56.80;;;;;;5107626;28;19927;-66
2022/09/18 06:38:40;;;;;;;;;;;17.50;56.80;;;;;;5107708;28;19927;-66
2022/09/18 06:41:07;;;;;;;;;;;17.50;56.80;;;;;;5098575;28;19916;-68
2022/09/18 06:43:33;;;;;;;;;;;17.50;56.80;;;;;;5094341;28;19920;-67
2022/09/18 06:45:59;;;;;;;;;;;17.50;56.80;;;;;;5093865;28;19971;-66
2022/09/18 06:48:25;;;;;;;;;;;17.50;56.80;;;;;;5093988;28;20001;-66
2022/09/18 06:50:51;;;;;;;;;;;17.50;56.80;;;;;;5094176;28;19923;-68
2022/09/18 06:53:17;;;;;;;;;;;17.50;56.80;;;;;;5094211;28;20360;-67
2022/09/18 06:55:42;;;;;;;;;;;17.50;56.80;;;;;;5093845;28;19923;-66
2022/09/18 06:58:08;;;;;;;;;;;17.50;56.80;;;;;;5093675;28;19931;-66
2022/09/18 07:00:33;;;;;;;;;;;17.50;56.80;;;;;;5094811;28;19946;-66
2022/09/18 07:03:00;;;;;;;;;;;17.50;56.90;;;;;;5093607;28;19999;-67
2022/09/18 07:05:27;;;;;;;;;;;17.50;56.90;;;;;;5093990;28;19916;-67
2022/09/18 07:07:52;;;;;;;;;;;17.50;56.90;;;;;;5095206;28;19916;-66
2022/09/18 07:10:18;;;;;;;;;;;17.50;56.90;;;;;;5094676;28;20325;-67
2022/09/18 07:12:47;;;;;;;;;;;17.50;56.90;;;;;;5093494;28;19955;-67
2022/09/18 07:15:13;;;;;;;;;;;17.50;56.90;;;;;;5093557;28;19915;-67
2022/09/18 07:17:39;;;;;;;;;;;17.50;56.90;;;;;;5093537;28;19920;-66
2022/09/18 07:20:05;;;;;;;;;;;17.50;56.90;;;;;;5092645;28;19949;-68
2022/09/18 07:22:31;;;;;;;;;;;17.50;56.90;;;;;;5093258;28;19959;-69
2022/09/18 07:24:56;;;;;;;;;;;17.40;57.60;;;;;;5093791;28;20015;-67
2022/09/18 07:27:22;;;;;;;;;;;17.50;56.90;;;;;;5093430;28;19920;-67
2022/09/18 07:29:47;;;;;;;;;;;17.50;57.00;;;;;;5094070;28;20402;-67
2022/09/18 07:32:13;;;;;;;;;;;17.50;57.00;;;;;;5113374;28;19931;-67
2022/09/18 07:34:38;;;;;;;;;;;17.50;57.00;;;;;;5113701;28;19924;-66
2022/09/18 07:37:04;;;;;;;;;;;17.40;56.90;;;;;;5114635;28;20053;-66
2022/09/18 07:39:30;;;;;;;;;;;17.50;57.00;;;;;;5114732;28;20533;-68
2022/09/18 07:41:55;;;;;;;;;;;17.50;57.00;;;;;;5114553;28;19920;-67
2022/09/18 07:44:21;;;;;;;;;;;17.50;57.00;;;;;;5113712;28;20010;-67
2022/09/18 07:46:46;;;;;;;;;;;17.50;57.00;;;;;;5084607;28;19939;-67
2022/09/18 07:49:12;;;;;;;;;;;17.50;57.00;;;;;;5073581;28;19928;-67
2022/09/18 07:51:37;;;;;;;;;;;17.50;57.00;;;;;;5073398;28;19920;-67
2022/09/18 07:54:03;;;;;;;;;;;17.40;57.00;;;;;;5073552;28;19924;-69
2022/09/18 07:56:28;;;;;;;;;;;17.50;57.00;;;;;;5074201;28;19925;-67
2022/09/18 07:58:54;;;;;;;;;;;17.50;57.00;;;;;;5072445;28;19920;-67
2022/09/18 08:01:19;;;;;;;;;;;17.40;57.00;;;;;;5072178;28;19921;-67
2022/09/18 08:03:45;;;;;;;;;;;17.40;57.00;;;;;;5072099;28;19920;-67
2022/09/18 08:06:11;;;;;;;;;;;17.40;57.00;;;;;;5072822;28;20018;-68
2022/09/18 08:08:36;;;;;;;;;;;17.50;57.10;;;;;;5071995;28;20273;-67
2022/09/18 08:11:02;;;;;;;;;;;17.40;57.00;;;;;;5073489;28;19920;-67
2022/09/18 08:13:27;;;;;;;;;;;17.40;57.00;;;;;;5071935;28;19925;-67
2022/09/18 08:15:53;;;;;;;;;;;17.40;57.10;;;;;;5073330;28;19920;-66
2022/09/18 08:18:21;;;;;;;;;;;17.40;57.00;;;;;;5072123;28;20003;-66
2022/09/18 08:20:47;;;;;;;;;;;17.40;57.10;;;;;;5072276;28;20442;-66
2022/09/18 08:23:12;;;;;;;;;;;17.40;57.10;;;;;;5071695;28;20338;-69
2022/09/18 08:25:38;;;;;;;;;;;17.50;57.10;;;;;;5073309;28;19924;-66
2022/09/18 08:28:04;;;;;;;;;;;17.40;57.10;;;;;;5071670;28;20027;-67
2022/09/18 08:30:31;;;;;;;;;;;17.40;57.10;;;;;;5081678;28;19969;-67
2022/09/18 08:32:57;;;;;;;;;;;17.40;57.10;;;;;;5112226;28;19955;-67
2022/09/18 08:35:23;;;;;;;;;;;17.40;57.10;;;;;;5113416;28;20390;-67
2022/09/18 08:37:49;;;;;;;;;;;17.50;57.10;;;;;;5112140;28;19920;-66
2022/09/18 08:40:16;;;;;;;;;;;17.40;57.10;;;;;;5112415;28;19916;-67
2022/09/18 08:42:53;;;;;;;;;;;17.40;57.10;;;;;;5112221;28;19916;-67
2022/09/18 08:48:03;;;;;;;;;;;17.40;57.20;;;;;;5089718;28;19915;-67
2022/09/18 08:50:31;;;;;;;;;;;17.50;57.20;;;;;;5088561;28;20360;-66
2022/09/18 08:53:01;;;;;;;;;;;17.40;57.20;;;;;;5088438;28;19920;-66
2022/09/18 08:55:29;;;;;;;;;;;17.40;57.10;;;;;;5088472;28;19959;-66
2022/09/18 08:57:58;;;;;;;;;;;17.40;57.10;;;;;;5088730;28;19927;-67
2022/09/18 09:00:30;;;;;;;;;;;17.40;57.20;;;;;;5088231;28;19920;-66
2022/09/18 09:03:12;;;;;;;;;;;17.40;57.20;;;;;;5088706;28;20280;-67
2022/09/18 09:05:43;;;;;;;;;;;17.40;57.20;;;;;;5088498;28;19920;-67
2022/09/18 09:08:15;;;;;;;;;;;17.40;57.20;;;;;;5089448;28;19920;-66
2022/09/18 09:10:43;;;;;;;;;;;17.40;57.20;;;;;;5088476;28;19924;-67
2022/09/18 09:16:10;;;;;;;;;;;17.40;57.20;;;;;;5089879;28;19912;-67
2022/09/18 09:18:44;;;;;;;;;;;17.40;57.20;;;;;;5088351;28;20406;-67
2022/09/18 09:21:20;;;;;;;;;;;17.40;57.20;;;;;;5088858;28;20241;-67
2022/09/18 09:24:01;;;;;;;;;;;17.40;57.20;;;;;;5088523;28;19932;-67
2022/09/18 09:26:31;;;;;;;;;;;17.40;57.30;;;;;;5089764;28;20328;-67
2022/09/18 09:31:38;;;;;;;;;;;17.40;57.30;;;;;;5089803;28;19912;-71
2022/09/18 09:34:10;;;;;;;;;;;17.40;57.30;;;;;;5088759;28;19920;-69
2022/09/18 09:36:36;;;;;;;;;;;17.40;57.30;;;;;;5088738;28;20336;-69
2022/09/18 09:44:28;;;;;;;;;;;17.40;57.30;;;;;;5110255;27;20368;-67
2022/09/18 09:47:13;;;;;;;;;;;17.40;57.30;;;;;;5108913;28;19924;-68
2022/09/18 09:49:46;;;;;;;;;;;17.40;57.30;;;;;;5108672;28;20372;-67
2022/09/18 09:52:16;;;;;;;;;;;17.40;57.30;;;;;;5109058;28;19926;-66
2022/09/18 09:54:43;;;;;;;;;;;17.40;57.30;;;;;;5108846;28;19927;-67
2022/09/18 09:57:15;;;;;;;;;;;17.40;57.30;;;;;;5108849;28;19924;-67
2022/09/18 10:02:31;;;;;;;;;;;17.30;57.30;;;;;;5089843;28;19912;-67
2022/09/18 10:05:01;;;;;;;;;;;17.40;57.40;;;;;;5088584;28;20367;-67
2022/09/18 10:07:31;;;;;;;;;;;17.40;57.40;;;;;;5088840;28;19916;-66
2022/09/18 10:10:00;;;;;;;;;;;17.40;57.40;;;;;;5088379;28;20003;-66
2022/09/18 10:12:31;;;;;;;;;;;17.40;57.40;;;;;;5088315;28;19927;-69
2022/09/18 10:15:02;;;;;;;;;;;17.40;57.40;;;;;;5088720;28;19920;-67
2022/09/18 10:17:31;;;;;;;;;;;17.40;57.40;;;;;;5105619;28;19942;-67
2022/09/18 10:19:57;;;;;;;;;;;17.40;57.40;;;;;;5089473;28;19975;-67
2022/09/18 10:22:25;;;;;;;;;;;17.40;57.50;;;;;;5088112;28;20385;-67
2022/09/18 10:25:10;;;;;;;;;;;17.40;57.50;;;;;;5089492;28;20334;-66
2022/09/18 10:27:36;;;;;;;;;;;17.30;57.40;;;;;;5087909;28;19970;-69
2022/09/18 10:30:17;;;;;;;;;;;17.40;57.40;;;;;;5088082;28;19959;-67
2022/09/18 10:32:42;;;;;;;;;;;17.40;57.50;;;;;;5089351;28;20378;-67
2022/09/18 10:35:28;;;;;;;;;;;17.30;57.50;;;;;;5088239;28;19921;-67
2022/09/18 10:37:54;;;;;;;;;;;17.30;57.50;;;;;;5088985;28;19921;-67
2022/09/18 10:40:29;;;;;;;;;;;17.40;57.50;;;;;;5087805;28;19928;-67
2022/09/18 10:42:55;;;;;;;;;;;17.40;57.50;;;;;;5088118;28;19920;-67
2022/09/18 10:45:22;;;;;;;;;;;17.40;57.50;;;;;;5088162;28;19927;-68
2022/09/18 10:47:48;;;;;;;;;;;17.40;57.50;;;;;;5089048;28;19927;-67
2022/09/18 10:53:13;;;;;;;;;;;17.30;57.50;;;;;;5110249;27;19919;-67
2022/09/18 10:55:46;;;;;;;;;;;17.40;57.50;;;;;;5108991;28;19923;-67
2022/09/18 10:58:13;;;;;;;;;;;17.30;57.50;;;;;;5108660;28;19919;-67
2022/09/18 11:00:58;;;;;;;;;;;17.30;57.50;;;;;;5109344;28;19939;-67
2022/09/18 11:06:23;;;;;;;;;;;17.30;57.60;;;;;;5089868;28;19938;-67
2022/09/18 11:08:50;;;;;;;;;;;17.30;57.50;;;;;;5089953;28;19985;-67
2022/09/18 11:11:21;;;;;;;;;;;17.40;57.60;;;;;;5088464;28;19927;-67
2022/09/18 11:13:49;;;;;;;;;;;17.30;57.60;;;;;;5088408;28;19966;-67
2022/09/18 11:16:21;;;;;;;;;;;17.40;57.60;;;;;;5088733;28;19927;-67
2022/09/18 11:18:58;;;;;;;;;;;17.30;57.60;;;;;;5088333;28;19920;-68
2022/09/18 11:21:23;;;;;;;;;;;17.30;57.60;;;;;;5088246;28;19921;-67
2022/09/18 11:24:00;;;;;;;;;;;17.30;57.60;;;;;;5105109;28;19998;-67
2022/09/18 11:26:27;;;;;;;;;;;17.30;57.60;;;;;;5088577;28;19920;-70
2022/09/18 11:31:42;;;;;;;;;;;17.30;57.70;;;;;;5089858;28;19917;-67
2022/09/18 11:34:16;;;;;;;;;;;17.30;57.70;;;;;;5088560;28;19916;-67
2022/09/18 11:36:45;;;;;;;;;;;17.30;57.70;;;;;;5088555;28;19977;-67
2022/09/18 11:39:12;;;;;;;;;;;17.30;57.70;;;;;;5089744;28;19927;-67
2022/09/18 11:41:39;;;;;;;;;;;17.30;57.70;;;;;;5088784;28;19921;-67
2022/09/18 11:44:12;;;;;;;;;;;17.30;57.70;;;;;;5088609;28;19920;-66
2022/09/18 11:49:22;;;;;;;;;;;17.30;57.70;;;;;;5110188;27;19912;-66
2022/09/18 11:52:08;;;;;;;;;;;17.40;57.80;;;;;;5143600;27;20029;-66
2022/09/18 11:54:38;;;;;;;;;;;17.40;57.80;;;;;;5088170;28;19927;-67
2022/09/18 11:57:11;;;;;;;;;;;17.30;58.50;;;;;;5088697;28;20023;-67
2022/09/18 11:59:41;;;;;;;;;;;17.30;57.80;;;;;;5089620;28;20010;-67
2022/09/18 12:02:13;;;;;;;;;;;17.30;57.80;;;;;;5088430;28;19920;-67
2022/09/18 12:04:42;;;;;;;;;;;17.30;57.80;;;;;;5088717;28;19985;-66
2022/09/18 12:12:36;;;;;;;;;;;17.40;57.90;;;;;;5089910;28;19913;-67
2022/09/18 12:15:19;;;;;;;;;;;17.40;57.80;;;;;;5088525;28;19924;-69
2022/09/18 12:20:30;;;;;;;;;;;17.30;57.80;;;;;;5110284;27;20407;-68
2022/09/18 12:22:57;;;;;;;;;;;17.30;57.80;;;;;;5092041;28;19973;-67
2022/09/18 12:25:28;;;;;;;;;;;17.30;57.80;;;;;;5108821;28;20012;-67
2022/09/18 12:28:02;;;;;;;;;;;17.30;57.80;;;;;;5091732;28;20429;-66
2022/09/18 12:30:32;;;;;;;;;;;17.40;57.90;;;;;;5091709;28;19920;-66
2022/09/18 12:38:33;;;;;;;;;;;17.30;57.80;;;;;;5110290;27;19908;-66
2022/09/18 12:41:18;;;;;;;;;;;17.30;57.80;;;;;;5109049;28;19965;-67
2022/09/18 12:43:53;;;;;;;;;;;17.30;57.90;;;;;;5109043;28;20356;-67
2022/09/18 12:46:26;;;;;;;;;;;17.40;57.90;;;;;;5109268;28;19927;-67
2022/09/18 12:48:59;;;;;;;;;;;17.30;57.90;;;;;;5110079;28;20280;-67
2022/09/18 12:57:21;;;;;;;;;;;17.30;57.90;;;;;;5110319;27;19908;-67
2022/09/18 13:00:08;;;;;;;;;;;17.30;57.90;;;;;;5108684;28;20448;-67
2022/09/18 13:05:17;;;;;;;;;;;17.30;58.00;;;;;;5089858;28;19912;-67
2022/09/18 13:10:30;;;;;;;;;;;17.30;58.00;;;;;;5089764;28;19912;-67
2022/09/18 13:12:59;;;;;;;;;;;17.40;58.00;;;;;;5088452;28;19928;-67
2022/09/18 13:15:29;;;;;;;;;;;17.30;58.00;;;;;;5088835;28;19967;-67
2022/09/18 13:18:00;;;;;;;;;;;17.30;58.00;;;;;;5088682;28;20042;-66
2022/09/18 13:20:35;;;;;;;;;;;17.30;58.00;;;;;;5088650;28;20006;-67
2022/09/18 13:23:01;;;;;;;;;;;17.30;58.00;;;;;;5088590;28;19956;-68
2022/09/18 13:28:10;;;;;;;;;;;17.30;58.00;;;;;;5089847;28;20380;-67
2022/09/18 13:30:36;;;;;;;;;;;17.40;58.10;;;;;;5090041;28;19981;-66
2022/09/18 13:33:02;;;;;;;;;;;17.30;58.10;;;;;;5089918;28;20398;-66
2022/09/18 13:35:29;;;;;;;;;;;17.30;58.00;;;;;;5105700;28;19971;-66
2022/09/18 13:38:14;;;;;;;;;;;17.30;58.00;;;;;;5088534;28;20369;-66
2022/09/18 13:46:01;;;;;;;;;;;17.30;58.10;;;;;;5090036;28;19908;-66
2022/09/18 13:51:18;;;;;;;;;;;17.30;58.10;;;;;;5127072;27;1879458;-66
2022/09/18 13:53:44;;;;;;;;;;;17.30;58.10;;;;;;5174430;27;19914;-66
2022/09/18 13:56:11;;;;;;;;;;;17.30;58.10;;;;;;5157346;27;19939;-66
2022/09/18 13:58:46;;;;;;;;;;;17.30;58.10;;;;;;5174598;27;19922;-68
2022/09/18 14:01:32;;;;;;;;;;;17.40;58.20;;;;;;5174633;27;20432;-66
2022/09/18 14:03:57;;;;;;;;;;;17.30;58.10;;;;;;5193245;27;19921;-68
2022/09/18 14:09:24;;;;;;;;;;;17.30;58.10;;;;;;5089765;28;20376;-66
2022/09/18 14:11:49;;;;;;;;;;;17.30;58.10;;;;;;5088566;28;19962;-66
2022/09/18 14:14:19;;;;;;;;;;;17.30;58.10;;;;;;5088751;28;19960;-68
2022/09/18 14:16:46;;;;;;;;;;;17.30;58.10;;;;;;5088816;28;19999;-67
2022/09/18 14:19:32;;;;;;;;;;;17.30;58.10;;;;;;5088575;28;20330;-66
2022/09/18 14:21:58;;;;;;;;;;;17.30;58.10;;;;;;5105454;28;20384;-66
2022/09/18 14:24:44;;;;;;;;;;;17.30;58.20;;;;;;5088149;28;20387;-66
2022/09/18 14:27:30;;;;;;;;;;;17.30;58.20;;;;;;5105250;28;20027;-66
2022/09/18 14:29:57;;;;;;;;;;;17.30;58.10;;;;;;5088088;28;19920;-67
2022/09/18 14:32:24;;;;;;;;;;;17.30;58.20;;;;;;5088246;28;19921;-66
2022/09/18 14:34:52;;;;;;;;;;;17.30;58.20;;;;;;5088382;28;19924;-68
2022/09/18 14:37:23;;;;;;;;;;;17.30;58.20;;;;;;5087993;28;19927;-66
2022/09/18 14:39:49;;;;;;;;;;;17.30;58.20;;;;;;5089308;28;20387;-66
2022/09/18 14:42:35;;;;;;;;;;;17.30;58.20;;;;;;5087878;28;19920;-67
2022/09/18 14:45:17;;;;;;;;;;;17.30;58.20;;;;;;5087653;28;20364;-66
2022/09/18 14:47:44;;;;;;;;;;;17.30;58.20;;;;;;5087997;28;19927;-68
2022/09/18 14:53:18;;;;;;;;;;;17.30;58.20;;;;;;5086698;27;3014418;-70
2022/09/18 14:55:48;;;;;;;;;;;17.30;58.20;;;;;;5193451;27;19979;-68
2022/09/18 14:58:15;;;;;;;;;;;17.20;58.10;;;;;;5174285;27;19919;-67
2022/09/18 15:00:42;;;;;;;;;;;17.30;58.20;;;;;;5174533;27;19922;-66
2022/09/18 15:03:14;;;;;;;;;;;17.30;58.30;;;;;;5174629;27;19929;-69
2022/09/18 15:05:39;;;;;;;;;;;17.30;58.20;;;;;;5174468;27;19919;-66
2022/09/18 15:08:13;;;;;;;;;;;17.30;58.30;;;;;;5173993;27;20392;-66
2022/09/18 15:10:39;;;;;;;;;;;17.30;58.20;;;;;;5174037;27;19946;-66
2022/09/18 15:13:06;;;;;;;;;;;17.30;58.30;;;;;;5173977;27;19996;-66
2022/09/18 15:15:33;;;;;;;;;;;17.30;58.30;;;;;;5192888;27;19941;-67
2022/09/18 15:17:59;;;;;;;;;;;17.30;58.30;;;;;;5192838;27;19915;-66
2022/09/18 15:20:25;;;;;;;;;;;17.30;58.30;;;;;;5192860;27;19921;-66
2022/09/18 15:22:52;;;;;;;;;;;17.30;58.30;;;;;;5192753;27;20327;-67
2022/09/18 15:25:21;;;;;;;;;;;17.30;58.30;;;;;;5174152;27;19967;-66
2022/09/18 15:27:47;;;;;;;;;;;17.30;58.30;;;;;;5174044;27;19930;-67
2022/09/18 15:30:15;;;;;;;;;;;17.30;58.30;;;;;;5192825;27;19970;-67
2022/09/18 15:32:44;;;;;;;;;;;17.30;58.30;;;;;;5173597;27;19923;-66
2022/09/18 15:35:17;;;;;;;;;;;17.30;58.30;;;;;;5173749;27;19915;-67
2022/09/18 15:37:47;;;;;;;;;;;17.30;58.30;;;;;;5173950;27;19964;-66
2022/09/18 15:40:16;;;;;;;;;;;17.20;58.30;;;;;;5192782;27;19914;-66
2022/09/18 15:42:58;;;;;;;;;;;17.30;58.40;;;;;;5192353;27;19922;-67
2022/09/18 15:45:26;;;;;;;;;;;17.30;58.40;;;;;;5173812;27;19985;-68
2022/09/18 15:47:52;;;;;;;;;;;17.30;58.40;;;;;;5173603;27;20007;-67
2022/09/18 15:53:01;;;;;;;;;;;17.30;58.40;;;;;;5110041;27;19912;-66
2022/09/18 15:55:30;;;;;;;;;;;17.20;58.30;;;;;;5109241;28;19915;-66
2022/09/18 15:57:58;;;;;;;;;;;17.20;58.40;;;;;;5108840;28;19938;-66